createdAt,value
2022-08-03T00:03:42.171Z,71.9
2022-08-03T00:09:02.757Z,71.6
2022-08-03T00:13:59.124Z,71.9
2022-08-03T00:19:01.497Z,71.9
2022-08-03T00:24:11.881Z,71.6
2022-08-03T00:29:14.258Z,71.8
2022-08-03T00:34:29.847Z,71.6
2022-08-03T00:39:17.108Z,71.4
2022-08-03T00:44:33.500Z,71.6
2022-08-03T00:49:39.967Z,71.5
2022-08-03T00:54:45.311Z,71.5
2022-08-03T00:59:52.635Z,71.4
2022-08-03T01:04:48.991Z,71.4
2022-08-03T01:09:55.375Z,71.5
2022-08-03T01:15:11.773Z,71.4
2022-08-03T01:21:30.362Z,71.5
2022-08-03T01:25:44.658Z,71.5
2022-08-03T01:35:38.662Z,71.7
2022-08-03T01:40:43.969Z,71.6
2022-08-03T01:46:10.499Z,71.8
2022-08-03T01:51:00.869Z,71.9
2022-08-03T01:56:42.475Z,72.0
2022-08-03T02:07:01.727Z,71.9
2022-08-03T02:12:02.771Z,72.0
2022-08-03T02:17:09.165Z,71.9
2022-08-03T02:22:15.834Z,72.1
2022-08-03T02:27:21.929Z,72.3
2022-08-03T02:32:48.371Z,72.2
2022-08-03T02:37:24.843Z,72.3
2022-08-03T02:47:54.541Z,72.4
2022-08-03T02:52:58.084Z,72.3
2022-08-03T02:58:01.458Z,72.4
2022-08-03T03:03:06.915Z,72.5
2022-08-03T03:08:18.653Z,72.6
2022-08-03T03:13:19.756Z,72.5
2022-08-03T03:18:46.193Z,72.5
2022-08-03T03:23:32.545Z,72.6
2022-08-03T03:28:38.918Z,72.6
2022-08-03T03:33:45.336Z,72.5
2022-08-03T03:38:51.683Z,72.5
2022-08-03T03:43:58.163Z,72.6
2022-08-03T03:54:31.598Z,72.5
2022-08-03T04:00:34.141Z,72.5
2022-08-03T04:18:52.742Z,72.7
2022-08-03T04:24:28.185Z,72.2
2022-08-03T04:28:56.485Z,72.2
2022-08-03T04:34:16.944Z,72.2
2022-08-03T04:40:03.450Z,72.2
2022-08-03T04:44:45.776Z,72.0
2022-08-03T04:49:36.238Z,72.0
2022-08-03T04:55:02.548Z,72.1
2022-08-03T04:59:44.881Z,72.2
2022-08-03T05:04:51.266Z,72.5
2022-08-03T05:10:03.276Z,72.8
2022-08-03T05:15:28.106Z,73.8
2022-08-03T05:20:10.434Z,74.6
2022-08-03T05:25:50.899Z,75.1
2022-08-03T05:30:58.365Z,75.4
2022-08-03T05:36:04.755Z,75.6
2022-08-03T05:46:12.539Z,76.0
2022-08-03T05:51:22.866Z,77.0
2022-08-03T05:56:30.236Z,77.6
2022-08-03T06:01:40.712Z,78.7
2022-08-03T06:06:46.969Z,79.6
2022-08-03T06:11:49.414Z,81.4
2022-08-03T06:18:12.920Z,81.3
2022-08-03T06:23:01.202Z,82.7
2022-08-03T06:28:52.869Z,85.0
2022-08-03T06:33:12.178Z,83.6
2022-08-03T06:38:19.573Z,84.9
2022-08-03T06:48:52.390Z,85.5
2022-08-03T06:53:38.735Z,87.3
2022-08-03T06:58:45.108Z,88.5
2022-08-03T07:08:59.672Z,89.4
2022-08-03T07:14:04.347Z,90.7
2022-08-03T07:19:10.766Z,90.8
2022-08-03T07:24:07.143Z,91.4
2022-08-03T07:29:23.535Z,91.5
2022-08-03T07:34:29.905Z,91.4
2022-08-03T07:39:36.282Z,91.0
2022-08-03T07:44:42.771Z,90.5
2022-08-03T07:49:49.166Z,89.8
2022-08-03T07:55:23.588Z,87.4
2022-08-03T08:00:15.941Z,85.1
2022-08-03T08:05:28.322Z,82.4
2022-08-03T08:10:14.674Z,80.1
2022-08-03T08:15:21.058Z,78.8
2022-08-03T08:20:28.384Z,76.3
2022-08-03T08:25:24.220Z,75.0
2022-08-03T08:30:40.613Z,72.7
2022-08-03T08:35:36.974Z,70.5
2022-08-03T08:40:57.418Z,69.8
2022-08-03T08:45:49.804Z,68.2
2022-08-03T08:51:54.714Z,66.4
2022-08-03T08:56:12.609Z,64.8
2022-08-03T09:01:19.087Z,64.2
2022-08-03T09:06:15.429Z,63.2
2022-08-03T09:11:54.517Z,63.1
2022-08-03T09:16:38.218Z,61.7
2022-08-03T09:21:44.617Z,61.4
2022-08-03T09:27:26.180Z,60.8
2022-08-03T09:38:13.630Z,60.9
2022-08-03T09:43:57.634Z,59.2
2022-08-03T09:48:15.922Z,58.7
2022-08-03T09:53:22.318Z,57.8
2022-08-03T09:58:04.661Z,55.7
2022-08-03T10:03:11.754Z,55.5
2022-08-03T10:08:18.217Z,54.6
2022-08-03T10:13:24.672Z,53.2
2022-08-03T10:18:31.045Z,51.7
2022-08-03T10:23:37.447Z,51.4
2022-08-03T10:28:45.513Z,50.9
2022-08-03T10:34:14.304Z,49.7
2022-08-03T10:39:16.705Z,49.0
2022-08-03T10:44:03.033Z,49.7
2022-08-03T10:49:09.491Z,48.7
2022-08-03T10:54:15.797Z,47.1
2022-08-03T10:59:28.010Z,45.8
2022-08-03T11:04:28.571Z,47.0
2022-08-03T11:09:54.999Z,46.9
2022-08-03T11:14:41.346Z,45.9
2022-08-03T11:19:57.357Z,45.2
2022-08-03T11:24:54.461Z,43.5
2022-08-03T11:30:00.708Z,43.9
2022-08-03T11:35:07.095Z,43.4
2022-08-03T11:40:13.486Z,43.6
2022-08-03T11:45:40.025Z,42.9
2022-08-03T11:50:46.422Z,42.8
2022-08-03T11:55:32.729Z,43.4
2022-08-03T12:00:40.557Z,43.4
2022-08-03T12:06:09.635Z,43.1
2022-08-03T12:10:52.057Z,42.6
2022-08-03T12:15:58.480Z,42.2
2022-08-03T12:21:04.868Z,42.9
2022-08-03T12:26:31.257Z,43.7
2022-08-03T12:31:17.618Z,44.3
2022-08-03T12:36:24.085Z,43.4
2022-08-03T12:41:30.463Z,43.8
2022-08-03T12:46:36.880Z,43.9
2022-08-03T12:51:47.231Z,43.8
2022-08-03T12:56:49.598Z,44.0
2022-08-03T13:01:56.148Z,45.0
2022-08-03T13:07:03.199Z,45.8
2022-08-03T13:12:32.784Z,46.3
2022-08-03T13:17:15.268Z,45.5
2022-08-03T13:28:03.288Z,46.0
2022-08-03T13:32:33.540Z,46.2
2022-08-03T13:37:40.927Z,45.3
2022-08-03T13:42:47.391Z,44.9
2022-08-03T13:48:36.925Z,45.8
2022-08-03T13:54:12.246Z,45.6
2022-08-03T14:08:19.295Z,44.9
2022-08-03T14:13:17.634Z,45.2
2022-08-03T14:18:33.752Z,44.9
2022-08-03T14:23:38.688Z,43.9
2022-08-03T14:29:09.068Z,43.7
2022-08-03T14:34:11.436Z,43.7
2022-08-03T14:41:11.996Z,43.8
2022-08-03T14:45:53.696Z,43.7
2022-08-03T14:51:00.040Z,43.3
2022-08-03T14:56:10.477Z,43.0
2022-08-03T15:02:05.387Z,43.9
2022-08-03T15:06:09.280Z,44.0
2022-08-03T15:11:25.745Z,44.6
2022-08-03T15:16:32.278Z,45.2
2022-08-03T15:26:40.916Z,45.9
2022-08-03T15:31:51.416Z,46.4
2022-08-03T15:42:04.155Z,46.7
2022-08-03T15:47:10.627Z,47.2
2022-08-03T15:52:41.044Z,47.5
2022-08-03T15:57:23.732Z,47.8
2022-08-03T16:02:29.777Z,48.2
2022-08-03T16:07:36.180Z,48.5
2022-08-03T16:12:42.569Z,48.6
2022-08-03T16:17:48.934Z,48.9
2022-08-03T16:22:55.366Z,49.4
2022-08-03T16:28:07.937Z,49.5
2022-08-03T16:38:18.828Z,50.1
2022-08-03T16:43:41.256Z,50.4
2022-08-03T16:48:27.612Z,50.7
2022-08-03T16:54:07.455Z,51.1
2022-08-03T16:58:42.583Z,51.5
2022-08-03T17:04:02.789Z,51.6
2022-08-03T17:08:55.170Z,51.6
2022-08-03T17:13:59.567Z,51.9
2022-08-03T17:19:05.950Z,52.3
2022-08-03T17:24:40.817Z,52.4
2022-08-03T17:29:18.701Z,52.7
2022-08-03T17:34:26.480Z,53.0
2022-08-03T17:39:59.782Z,53.2
2022-08-03T17:44:58.101Z,53.4
2022-08-03T17:49:44.460Z,53.5
2022-08-03T17:55:55.503Z,53.5
2022-08-03T17:59:57.214Z,53.4
2022-08-03T18:06:11.058Z,53.8
2022-08-03T18:10:30.017Z,54.1
2022-08-03T18:15:21.332Z,54.5
2022-08-03T18:20:33.055Z,54.5
2022-08-03T18:25:45.815Z,55.0
2022-08-03T18:30:53.883Z,55.2
2022-08-03T18:35:52.919Z,55.4
2022-08-03T18:45:58.029Z,56.0
2022-08-03T18:51:24.346Z,56.2
2022-08-03T18:56:08.308Z,56.5
2022-08-03T19:01:57.823Z,56.8
2022-08-03T19:06:21.194Z,57.1
2022-08-03T19:12:26.179Z,57.4
2022-08-03T19:16:34.247Z,57.5
2022-08-03T19:22:00.380Z,57.8
2022-08-03T19:26:48.678Z,58.1
2022-08-03T19:31:59.604Z,58.2
2022-08-03T19:36:59.924Z,58.5
2022-08-03T19:42:10.078Z,58.8
2022-08-03T19:52:39.118Z,59.2
2022-08-03T19:57:25.466Z,59.4
2022-08-03T20:02:31.839Z,59.8
2022-08-03T20:07:38.243Z,60.0
2022-08-03T20:12:44.651Z,60.1
2022-08-03T20:17:57.160Z,60.4
2022-08-03T20:22:57.877Z,60.6
2022-08-03T20:28:07.940Z,61.0
2022-08-03T20:34:01.628Z,61.1
2022-08-03T20:38:20.340Z,61.4
2022-08-03T20:43:26.731Z,61.8
2022-08-03T20:49:45.883Z,61.9
2022-08-03T20:54:00.448Z,62.3
2022-08-03T20:59:14.898Z,62.6
2022-08-03T21:03:55.584Z,62.8
2022-08-03T21:08:58.763Z,63.0
2022-08-03T21:13:04.309Z,55.6
2022-08-03T21:14:52.239Z,63.1
2022-08-03T21:19:31.549Z,63.4
2022-08-03T21:24:17.923Z,63.8
2022-08-03T21:29:24.307Z,63.8
2022-08-03T21:34:30.728Z,64.4
2022-08-03T21:39:37.297Z,64.4
2022-08-03T21:45:07.749Z,64.7
2022-08-03T21:50:07.377Z,64.7
2022-08-03T21:54:56.485Z,65.2
2022-08-03T22:00:02.863Z,65.2
2022-08-03T22:05:43.878Z,65.5
2022-08-03T22:10:15.637Z,65.6
2022-08-03T22:16:34.276Z,65.8
2022-08-03T22:20:28.790Z,65.9
2022-08-03T22:25:35.160Z,66.1
2022-08-03T22:30:41.555Z,66.2
2022-08-03T22:35:48.490Z,66.3
2022-08-03T22:51:07.184Z,66.6
2022-08-03T22:56:13.562Z,66.7
2022-08-03T23:01:20.052Z,66.6
2022-08-03T23:06:26.454Z,66.6
2022-08-03T23:11:32.903Z,67.0
2022-08-03T23:16:39.296Z,66.6
2022-08-03T23:22:29.419Z,66.8
2022-08-03T23:27:16.219Z,66.7
2022-08-03T23:31:58.659Z,66.8
2022-08-03T23:42:15.432Z,66.5
2022-08-03T23:47:17.821Z,66.7
2022-08-03T23:52:48.251Z,66.7
2022-08-03T23:57:30.594Z,66.8
